Steptoe Valley WMA, Nevada Weather observations

Data are for 10 minute period ending at time listed.
 Day   Time   Solar   Ave.   Ave.  Ave.  Vector  Max.   Baro.   Total    
  of    of     Rad.   Air    Rel.  Wind   Wind   Wind  Press.  Precip.   
Year   Day            Temp.  Hum.  Speed  Dir.   Gust                    
2014   (PST)  Kw/m2    F      %     mph   deg.    mph    mb.     in.     
-------------------------------------------------------------------------
 265    0:00   0.00   46.6    94    4.3   168     6.7   807.0    0.00 
 265    0:10   0.00   46.6    93    3.5   175     4.7   807.0    0.00 
 265    0:20   0.00   46.0    93    4.2   176     5.5   807.0    0.00 
 265    0:30   0.00   45.4    94    5.2   180     7.7   807.0    0.00 
 265    0:40   0.00   45.0    94    4.9   183     7.2   807.0    0.00 
 265    0:50   0.00   45.1    95    5.1   178     7.2   807.0    0.00 
 265    1:00   0.00   45.2    94    5.2   181     7.7   807.1    0.00 
 265    1:10   0.00   44.6    94    4.6   178     6.9   807.1    0.00 
 265    1:20   0.00   44.7    94    5.7   170     8.0   807.1    0.00 
 265    1:30   0.00   44.2    94    4.4   167     7.5   807.1    0.00 
 265    1:40   0.00   44.4    95    3.7   168     5.1   807.1    0.00 
 265    1:50   0.00   45.4    95    4.4   162     5.7   807.0    0.00 
 265    2:00   0.00   44.5    93    3.6   176     5.5   807.0    0.00 
 265    2:10   0.00   43.0    93    3.8   182     5.3   807.0    0.00 
 265    2:20   0.00   42.7    94    4.1   169     5.6   807.0    0.00 
 265    2:30   0.00   43.3    95    3.7   165     5.5   806.9    0.00 
 265    2:40   0.00   43.5    94    2.5   162     3.7   807.0    0.00 
 265    2:50   0.00   43.8    94    2.2   142     7.1   806.9    0.00 
 265    3:00   0.00   42.4    94    1.4   108     4.1   807.0    0.00 
 265    3:10   0.00   42.5    94    1.6    18     3.9   807.1    0.00 
 265    3:20   0.00   43.2    94    1.6   128     4.1   807.1    0.00 
 265    3:30   0.00   43.1    94    1.5   131     4.7   807.1    0.00 
 265    3:40   0.00   41.7    92    1.1   216     3.1   807.2    0.00 
 265    3:50   0.00   41.7    94    2.9   160     5.0   807.1    0.00 

Return to Steptoe Valley WMA graphs page.


Western Regional Climate Center,wrcc@dri.edu